Time;durP1;ratioP1;P1;durP2;ratioP2;P2;SDS_P1;SDS_P2;PMS_P1;PMS_P2;Temp;Humidity;BMP_temperature;BMP_pressure;BME280_temperature;BME280_humidity;BME280_pressure;Samples;Min_cycle;Max_cycle;Signal;HPM_P1;HPM_P2
2024/03/05 00:01:02;;;;;;;15.75;13.30;;;;;;;;;;10418747;27;20070;-62
2024/03/05 00:06:00;;;;;;;16.40;13.05;;;;;;;;;;10422559;27;20491;-62
2024/03/05 00:10:59;;;;;;;16.55;12.70;;;;;;;;;;10418940;27;20378;-60
2024/03/05 00:15:58;;;;;;;15.75;12.82;;;;;;;;;;10417167;27;20075;-62
2024/03/05 00:21:00;;;;;;;16.48;12.63;;;;;;;;;;10415917;27;20070;-62
2024/03/05 00:25:58;;;;;;;19.88;13.77;;;;;;;;;;10414662;27;20063;-60
2024/03/05 00:30:56;;;;;;;17.77;13.70;;;;;;;;;;10416717;27;20075;-60
2024/03/05 00:35:54;;;;;;;16.60;13.00;;;;;;;;;;10418503;27;20093;-62
2024/03/05 00:40:54;;;;;;;22.58;14.25;;;;;;;;;;10420578;27;20072;-62
2024/03/05 00:45:53;;;;;;;17.67;13.63;;;;;;;;;;10421473;27;20075;-61
2024/03/05 00:50:51;;;;;;;17.80;13.10;;;;;;;;;;10418102;27;20066;-63
2024/03/05 00:55:49;;;;;;;15.00;12.50;;;;;;;;;;10420668;27;20064;-60
2024/03/05 01:00:49;;;;;;;18.50;13.10;;;;;;;;;;10422686;27;20167;-61
2024/03/05 01:05:47;;;;;;;17.80;12.27;;;;;;;;;;10416356;27;20435;-61
2024/03/05 01:10:46;;;;;;;13.55;11.80;;;;;;;;;;10418498;27;20078;-61
2024/03/05 01:15:44;;;;;;;14.88;13.25;;;;;;;;;;10419510;27;20079;-62
2024/03/05 01:20:44;;;;;;;14.40;11.23;;;;;;;;;;10418350;27;20083;-61
2024/03/05 01:25:43;;;;;;;19.80;11.85;;;;;;;;;;10419810;27;20086;-62
2024/03/05 01:30:43;;;;;;;16.63;12.55;;;;;;;;;;10412536;27;20063;-61
2024/03/05 01:35:41;;;;;;;15.02;12.10;;;;;;;;;;10411324;27;20480;-62
2024/03/05 01:40:41;;;;;;;18.08;12.98;;;;;;;;;;10419698;27;20069;-61
2024/03/05 01:45:40;;;;;;;17.17;13.15;;;;;;;;;;10416757;27;20479;-61
2024/03/05 01:50:38;;;;;;;15.68;12.93;;;;;;;;;;10419944;27;20078;-61
2024/03/05 01:55:38;;;;;;;15.68;12.02;;;;;;;;;;10415042;27;20075;-62
2024/03/05 02:00:38;;;;;;;17.83;13.20;;;;;;;;;;10418120;27;20074;-62
2024/03/05 02:05:36;;;;;;;18.27;14.65;;;;;;;;;;10417762;27;20075;-62
2024/03/05 02:10:34;;;;;;;19.23;13.52;;;;;;;;;;10416196;27;20078;-61
2024/03/05 02:15:33;;;;;;;14.95;12.10;;;;;;;;;;10418880;27;20074;-61
2024/03/05 02:20:33;;;;;;;21.00;13.00;;;;;;;;;;10417149;27;20077;-61
2024/03/05 02:25:33;;;;;;;19.63;13.98;;;;;;;;;;10418135;27;20082;-61
2024/03/05 02:30:31;;;;;;;16.52;12.75;;;;;;;;;;10418441;27;20504;-61
2024/03/05 02:35:29;;;;;;;15.93;13.80;;;;;;;;;;10419583;27;20508;-61
2024/03/05 02:40:28;;;;;;;17.60;13.27;;;;;;;;;;10410532;27;20145;-61
2024/03/05 02:45:28;;;;;;;16.98;13.93;;;;;;;;;;10412299;27;20534;-62
2024/03/05 02:50:26;;;;;;;18.63;14.52;;;;;;;;;;10418095;27;20082;-61
2024/03/05 02:55:24;;;;;;;18.17;14.77;;;;;;;;;;10428468;27;20100;-62
2024/03/05 03:00:24;;;;;;;16.55;14.45;;;;;;;;;;10426787;27;20066;-62
2024/03/05 03:05:24;;;;;;;22.00;15.70;;;;;;;;;;10424626;27;20813;-60
2024/03/05 03:10:22;;;;;;;20.02;15.25;;;;;;;;;;10423460;27;20090;-61
2024/03/05 03:15:21;;;;;;;17.98;14.15;;;;;;;;;;10425276;27;20067;-61
2024/03/05 03:20:21;;;;;;;19.92;17.23;;;;;;;;;;10422758;27;20060;-62
2024/03/05 03:25:20;;;;;;;22.13;15.95;;;;;;;;;;10424954;27;20079;-62
2024/03/05 03:30:20;;;;;;;22.38;16.42;;;;;;;;;;10422984;27;20059;-62
2024/03/05 03:35:19;;;;;;;23.65;19.15;;;;;;;;;;10417091;27;20067;-62
2024/03/05 03:40:21;;;;;;;28.50;20.02;;;;;;;;;;10421001;27;20541;-62
2024/03/05 03:45:21;;;;;;;25.90;16.55;;;;;;;;;;10421085;27;20101;-61
2024/03/05 03:50:20;;;;;;;20.48;15.13;;;;;;;;;;10416958;27;20070;-62
2024/03/05 03:55:18;;;;;;;19.88;14.70;;;;;;;;;;10426212;27;20063;-61
2024/03/05 04:00:18;;;;;;;18.58;15.35;;;;;;;;;;10421472;27;20140;-61
2024/03/05 04:05:18;;;;;;;22.23;16.17;;;;;;;;;;10421829;27;20086;-61
2024/03/05 04:10:16;;;;;;;25.02;15.73;;;;;;;;;;10419205;27;20527;-61
2024/03/05 04:15:18;;;;;;;20.33;14.65;;;;;;;;;;10420544;27;20071;-61
2024/03/05 04:20:20;;;;;;;21.48;15.52;;;;;;;;;;10421962;27;20063;-61
2024/03/05 04:25:23;;;;;;;21.17;16.20;;;;;;;;;;10418286;27;20081;-61
2024/03/05 04:30:23;;;;;;;23.70;16.23;;;;;;;;;;10416588;27;20078;-60
2024/03/05 04:35:23;;;;;;;21.42;15.77;;;;;;;;;;10420737;27;21222;-61
2024/03/05 04:40:21;;;;;;;20.98;16.67;;;;;;;;;;10426090;27;20067;-61
2024/03/05 04:45:19;;;;;;;23.75;17.00;;;;;;;;;;10417623;27;20069;-61
2024/03/05 04:50:18;;;;;;;22.27;17.58;;;;;;;;;;10422511;27;20083;-60
2024/03/05 04:55:17;;;;;;;24.20;18.30;;;;;;;;;;10419698;27;20113;-61
2024/03/05 05:00:23;;;;;;;28.25;18.75;;;;;;;;;;10419325;27;20507;-61
2024/03/05 05:05:24;;;;;;;22.02;17.50;;;;;;;;;;10424120;27;20071;-62
2024/03/05 05:10:26;;;;;;;24.55;18.70;;;;;;;;;;10418755;27;20090;-62
2024/03/05 05:15:24;;;;;;;23.00;18.95;;;;;;;;;;10420928;27;20073;-63
2024/03/05 05:20:23;;;;;;;23.75;18.55;;;;;;;;;;10421445;27;20062;-63
2024/03/05 05:25:21;;;;;;;25.40;18.30;;;;;;;;;;10420295;27;20082;-62
2024/03/05 05:30:23;;;;;;;21.95;17.10;;;;;;;;;;10427777;27;20499;-62
2024/03/05 05:35:21;;;;;;;26.15;19.67;;;;;;;;;;10431695;27;20609;-62
2024/03/05 05:40:20;;;;;;;26.45;19.23;;;;;;;;;;10415259;27;20066;-61
2024/03/05 05:45:22;;;;;;;22.15;18.73;;;;;;;;;;10419107;27;20066;-61
2024/03/05 05:50:21;;;;;;;23.75;19.98;;;;;;;;;;10415869;27;20059;-61
2024/03/05 05:55:21;;;;;;;33.00;22.05;;;;;;;;;;10420457;27;20099;-61
2024/03/05 06:00:31;;;;;;;28.23;21.08;;;;;;;;;;10417965;27;20075;-61
2024/03/05 06:05:31;;;;;;;26.33;19.73;;;;;;;;;;10416774;27;20063;-62
2024/03/05 06:10:30;;;;;;;28.48;21.73;;;;;;;;;;10426330;27;20490;-62
2024/03/05 06:15:33;;;;;;;26.67;19.52;;;;;;;;;;10422246;27;20086;-61
2024/03/05 06:20:33;;;;;;;26.58;21.05;;;;;;;;;;10424509;27;20047;-60
2024/03/05 06:25:32;;;;;;;30.38;21.67;;;;;;;;;;10413898;27;20073;-61
2024/03/05 06:30:30;;;;;;;28.02;21.80;;;;;;;;;;10418941;27;20086;-61
2024/03/05 06:35:31;;;;;;;31.30;21.90;;;;;;;;;;10424287;27;20082;-62
2024/03/05 06:40:29;;;;;;;32.60;22.42;;;;;;;;;;10413414;27;20071;-62
2024/03/05 06:45:28;;;;;;;31.30;21.52;;;;;;;;;;10421942;27;20067;-60
2024/03/05 06:50:33;;;;;;;29.63;21.77;;;;;;;;;;10419444;27;20082;-60
2024/03/05 07:00:46;;;;;;;32.40;23.83;;;;;;;;;;10377968;27;20079;-60
2024/03/05 07:05:44;;;;;;;31.67;24.83;;;;;;;;;;10386410;27;20082;-61
2024/03/05 07:10:44;;;;;;;37.83;24.65;;;;;;;;;;10404829;27;20094;-62
2024/03/05 07:15:42;;;;;;;42.20;25.85;;;;;;;;;;10416743;27;20067;-62
2024/03/05 07:20:42;;;;;;;30.88;24.42;;;;;;;;;;10432352;27;20085;-61
2024/03/05 07:25:40;;;;;;;33.45;24.52;;;;;;;;;;10429860;27;20085;-61
2024/03/05 07:30:42;;;;;;;31.33;24.02;;;;;;;;;;10442019;27;20082;-62
2024/03/05 07:35:40;;;;;;;30.52;24.25;;;;;;;;;;10439376;27;20077;-61
2024/03/05 07:40:38;;;;;;;40.00;26.20;;;;;;;;;;10430521;27;20071;-61
2024/03/05 07:45:37;;;;;;;34.22;23.95;;;;;;;;;;10420823;27;20558;-62
2024/03/05 07:50:36;;;;;;;32.90;25.67;;;;;;;;;;10419290;27;20503;-62
2024/03/05 07:55:37;;;;;;;32.97;25.20;;;;;;;;;;10420078;27;20067;-62
2024/03/05 08:00:44;;;;;;;33.47;24.45;;;;;;;;;;10421805;27;20081;-62
2024/03/05 08:05:44;;;;;;;31.73;23.90;;;;;;;;;;10416372;27;20094;-61
2024/03/05 08:10:44;;;;;;;34.03;24.88;;;;;;;;;;10412819;27;20094;-60
2024/03/05 08:15:42;;;;;;;33.63;24.77;;;;;;;;;;10417059;27;20067;-61
2024/03/05 08:20:40;;;;;;;32.33;27.73;;;;;;;;;;10419818;27;20082;-61
2024/03/05 08:25:40;;;;;;;34.50;26.35;;;;;;;;;;10420775;27;20074;-61
2024/03/05 08:30:42;;;;;;;43.50;26.27;;;;;;;;;;10403856;27;20106;-63
2024/03/05 08:35:41;;;;;;;37.75;27.23;;;;;;;;;;10422889;27;20508;-60
2024/03/05 08:40:40;;;;;;;37.47;27.30;;;;;;;;;;10414220;27;20102;-60
2024/03/05 08:45:39;;;;;;;41.65;29.02;;;;;;;;;;10420543;27;20082;-61
2024/03/05 08:50:37;;;;;;;33.67;26.75;;;;;;;;;;10418318;27;20083;-63
2024/03/05 08:55:35;;;;;;;39.13;28.92;;;;;;;;;;10423212;27;20046;-62
2024/03/05 09:00:35;;;;;;;35.42;29.27;;;;;;;;;;10415211;27;20075;-62
2024/03/05 09:05:41;;;;;;;37.45;29.95;;;;;;;;;;10414678;27;20071;-61
2024/03/05 09:10:46;;;;;;;33.47;28.15;;;;;;;;;;10418346;27;20084;-63
2024/03/05 09:15:46;;;;;;;39.13;30.92;;;;;;;;;;10416474;27;20487;-61
2024/03/05 09:20:44;;;;;;;38.35;29.67;;;;;;;;;;10418472;27;20066;-61
2024/03/05 09:25:43;;;;;;;37.90;29.90;;;;;;;;;;10423795;27;20066;-62
2024/03/05 09:30:42;;;;;;;32.70;28.10;;;;;;;;;;10415916;27;20515;-62
2024/03/05 09:35:42;;;;;;;37.95;28.27;;;;;;;;;;10421886;27;20075;-61
2024/03/05 09:40:40;;;;;;;39.33;29.85;;;;;;;;;;10414972;27;20524;-61
2024/03/05 09:45:41;;;;;;;34.75;28.48;;;;;;;;;;10418013;27;20070;-61
2024/03/05 09:50:39;;;;;;;33.58;26.77;;;;;;;;;;10414951;27;20458;-62
2024/03/05 09:55:39;;;;;;;36.00;27.95;;;;;;;;;;10416985;27;20047;-63
2024/03/05 10:00:38;;;;;;;33.78;25.50;;;;;;;;;;10415161;27;20067;-62
2024/03/05 10:05:38;;;;;;;37.80;25.98;;;;;;;;;;10414935;27;20075;-63
2024/03/05 10:10:37;;;;;;;35.75;26.45;;;;;;;;;;10415222;27;20079;-63
2024/03/05 10:15:42;;;;;;;25.23;21.50;;;;;;;;;;10414335;27;20070;-62
2024/03/05 10:20:41;;;;;;;29.80;23.25;;;;;;;;;;10415456;27;20470;-62
2024/03/05 10:25:40;;;;;;;28.70;20.55;;;;;;;;;;10414377;27;20071;-62
2024/03/05 10:30:42;;;;;;;25.33;18.63;;;;;;;;;;10413777;27;20075;-61
2024/03/05 10:35:41;;;;;;;23.92;19.55;;;;;;;;;;10415043;27;20073;-61
2024/03/05 10:40:43;;;;;;;23.00;18.02;;;;;;;;;;10417529;28;20071;-62
2024/03/05 10:45:45;;;;;;;24.58;17.65;;;;;;;;;;10418930;27;20130;-62
2024/03/05 10:50:45;;;;;;;21.08;17.67;;;;;;;;;;10416962;27;20083;-61
2024/03/05 10:55:44;;;;;;;22.63;17.00;;;;;;;;;;10411882;27;20085;-62
2024/03/05 11:00:42;;;;;;;20.35;16.45;;;;;;;;;;10425709;27;20071;-63
2024/03/05 11:05:49;;;;;;;18.38;15.40;;;;;;;;;;10423885;27;20071;-62
2024/03/05 11:10:48;;;;;;;20.58;16.63;;;;;;;;;;10426696;27;20510;-60
2024/03/05 11:15:49;;;;;;;24.50;16.70;;;;;;;;;;10423452;27;20082;-62
2024/03/05 11:20:48;;;;;;;24.98;18.17;;;;;;;;;;10432805;27;20535;-61
2024/03/05 11:25:47;;;;;;;22.48;15.98;;;;;;;;;;10429180;27;20175;-62
2024/03/05 11:30:46;;;;;;;20.48;13.50;;;;;;;;;;10429195;27;20086;-60
2024/03/05 11:35:44;;;;;;;19.05;11.68;;;;;;;;;;10403243;27;20050;-63
2024/03/05 11:40:44;;;;;;;16.08;11.95;;;;;;;;;;10424030;27;20085;-62
2024/03/05 11:45:43;;;;;;;19.20;11.02;;;;;;;;;;10420190;27;20051;-61
2024/03/05 11:50:42;;;;;;;17.10;10.65;;;;;;;;;;10423630;27;20071;-62
2024/03/05 11:55:40;;;;;;;16.88;10.32;;;;;;;;;;10422927;27;20055;-62
2024/03/05 12:00:40;;;;;;;14.93;10.18;;;;;;;;;;10420625;27;20523;-62
2024/03/05 12:05:44;;;;;;;16.67;12.02;;;;;;;;;;10420536;27;20086;-62
2024/03/05 12:10:42;;;;;;;18.47;11.10;;;;;;;;;;10420937;27;20091;-62
2024/03/05 12:15:42;;;;;;;17.60;13.77;;;;;;;;;;10417356;27;20071;-63
2024/03/05 12:20:41;;;;;;;16.17;10.25;;;;;;;;;;10401668;27;20067;-61
2024/03/05 12:25:40;;;;;;;17.25;9.18;;;;;;;;;;10399367;27;20067;-62
2024/03/05 12:30:38;;;;;;;12.52;8.60;;;;;;;;;;10420399;27;20083;-61
2024/03/05 12:35:38;;;;;;;11.63;8.48;;;;;;;;;;10418556;27;20070;-63
2024/03/05 12:40:37;;;;;;;10.75;8.52;;;;;;;;;;10425018;27;20098;-61
2024/03/05 12:45:35;;;;;;;14.07;10.43;;;;;;;;;;10421915;27;20078;-62
2024/03/05 12:50:33;;;;;;;10.57;7.57;;;;;;;;;;10422286;27;20075;-61
2024/03/05 12:55:33;;;;;;;15.65;9.30;;;;;;;;;;10415244;27;20067;-62
2024/03/05 13:00:34;;;;;;;12.55;8.32;;;;;;;;;;10421905;27;20070;-62
2024/03/05 13:05:32;;;;;;;14.15;7.53;;;;;;;;;;10436336;27;20071;-62
2024/03/05 13:10:32;;;;;;;10.32;6.38;;;;;;;;;;10412228;27;20083;-61
2024/03/05 13:15:31;;;;;;;8.75;7.28;;;;;;;;;;10424239;27;20082;-61
2024/03/05 13:20:30;;;;;;;11.98;6.60;;;;;;;;;;10419891;27;20094;-61
2024/03/05 13:25:30;;;;;;;8.90;6.50;;;;;;;;;;10417997;27;20273;-62
2024/03/05 13:30:28;;;;;;;12.48;7.70;;;;;;;;;;10414105;27;20097;-62
2024/03/05 13:35:28;;;;;;;11.38;6.07;;;;;;;;;;10423016;27;20079;-62
2024/03/05 13:40:26;;;;;;;17.10;6.40;;;;;;;;;;10428299;27;20110;-62
2024/03/05 13:45:27;;;;;;;13.82;6.28;;;;;;;;;;10420959;27;20086;-62
2024/03/05 13:50:28;;;;;;;9.00;5.80;;;;;;;;;;10398051;27;20094;-62
2024/03/05 13:55:28;;;;;;;12.10;7.70;;;;;;;;;;10415394;27;20075;-61
2024/03/05 14:00:31;;;;;;;13.25;5.93;;;;;;;;;;10409104;27;20079;-60
2024/03/05 14:05:31;;;;;;;11.75;6.13;;;;;;;;;;10400050;27;20129;-62
2024/03/05 14:10:30;;;;;;;17.17;6.28;;;;;;;;;;10418459;27;20078;-64
2024/03/05 14:15:28;;;;;;;5.97;5.38;;;;;;;;;;10425039;27;20075;-60
2024/03/05 14:20:27;;;;;;;8.68;5.82;;;;;;;;;;10414388;27;20063;-61
2024/03/05 14:25:29;;;;;;;7.72;6.90;;;;;;;;;;10417438;27;20089;-61
2024/03/05 14:30:27;;;;;;;14.07;9.75;;;;;;;;;;10409668;27;20634;-61
2024/03/05 14:35:26;;;;;;;11.98;7.63;;;;;;;;;;10426262;27;20067;-62
2024/03/05 14:40:24;;;;;;;18.25;7.72;;;;;;;;;;10414783;27;20078;-62
2024/03/05 14:45:24;;;;;;;10.07;6.78;;;;;;;;;;10421989;27;20508;-63
2024/03/05 14:50:23;;;;;;;13.27;8.55;;;;;;;;;;10417210;27;20083;-62
2024/03/05 14:55:22;;;;;;;13.65;7.55;;;;;;;;;;10418397;27;20073;-62
2024/03/05 15:00:22;;;;;;;11.73;7.90;;;;;;;;;;10421890;27;20070;-62
2024/03/05 15:05:24;;;;;;;14.52;9.52;;;;;;;;;;10425027;27;20063;-62
2024/03/05 15:10:22;;;;;;;14.73;9.60;;;;;;;;;;10420788;27;20532;-62
2024/03/05 15:15:23;;;;;;;23.27;13.70;;;;;;;;;;10424651;27;20074;-61
2024/03/05 15:20:23;;;;;;;14.38;10.63;;;;;;;;;;10429548;27;20063;-61
2024/03/05 15:25:22;;;;;;;21.73;11.70;;;;;;;;;;10433320;27;20070;-62
2024/03/05 15:30:22;;;;;;;17.67;9.55;;;;;;;;;;10428005;27;20082;-62
2024/03/05 15:35:21;;;;;;;21.00;10.82;;;;;;;;;;10423830;27;20071;-61
2024/03/05 15:40:22;;;;;;;16.55;12.38;;;;;;;;;;10420401;27;20062;-63
2024/03/05 15:45:21;;;;;;;19.25;11.95;;;;;;;;;;10419076;27;20499;-62
2024/03/05 15:50:22;;;;;;;29.70;19.23;;;;;;;;;;10420038;27;20086;-62
2024/03/05 15:55:23;;;;;;;23.70;11.70;;;;;;;;;;10421121;27;20094;-63
2024/03/05 16:00:28;;;;;;;24.00;11.05;;;;;;;;;;10419489;27;20071;-63
2024/03/05 16:05:27;;;;;;;15.33;9.27;;;;;;;;;;10419385;27;20087;-62
2024/03/05 16:10:39;;;;;;;19.48;10.40;;;;;;;;;;10421588;27;20086;-62
2024/03/05 16:15:46;;;;;;;14.73;9.68;;;;;;;;;;10421152;27;20074;-61
2024/03/05 16:20:46;;;;;;;17.83;10.23;;;;;;;;;;10420255;27;20093;-61
2024/03/05 16:25:46;;;;;;;19.15;8.82;;;;;;;;;;10418480;27;20081;-61
2024/03/05 16:30:44;;;;;;;15.55;9.40;;;;;;;;;;10422897;27;20459;-61
2024/03/05 16:35:43;;;;;;;23.02;10.93;;;;;;;;;;10416159;27;20611;-62
2024/03/05 16:40:41;;;;;;;18.65;12.05;;;;;;;;;;10420481;27;20078;-61
2024/03/05 16:45:41;;;;;;;15.07;9.55;;;;;;;;;;10417999;27;20523;-60
2024/03/05 16:50:39;;;;;;;11.70;7.28;;;;;;;;;;10428047;27;20085;-60
2024/03/05 16:55:38;;;;;;;10.63;6.55;;;;;;;;;;10425771;27;20077;-61
2024/03/05 17:00:43;;;;;;;13.10;7.45;;;;;;;;;;10418430;27;20476;-62
2024/03/05 17:05:45;;;;;;;9.98;7.03;;;;;;;;;;10417160;27;20067;-60
2024/03/05 17:10:44;;;;;;;13.55;8.35;;;;;;;;;;10420456;27;20086;-61
2024/03/05 17:15:44;;;;;;;13.60;9.23;;;;;;;;;;10417636;27;20542;-62
2024/03/05 17:20:44;;;;;;;13.48;9.70;;;;;;;;;;10415340;27;20066;-62
2024/03/05 17:25:42;;;;;;;17.08;8.90;;;;;;;;;;10403812;27;20086;-61
2024/03/05 17:30:41;;;;;;;19.83;11.48;;;;;;;;;;10406270;27;20086;-62
2024/03/05 17:35:39;;;;;;;13.43;8.55;;;;;;;;;;10415598;27;20070;-61
2024/03/05 17:40:39;;;;;;;16.20;8.02;;;;;;;;;;10419982;27;20089;-61
2024/03/05 17:45:38;;;;;;;12.23;8.07;;;;;;;;;;10420907;27;20071;-62
2024/03/05 17:50:36;;;;;;;10.57;7.07;;;;;;;;;;10421226;27;20071;-62
2024/03/05 17:55:35;;;;;;;11.50;6.63;;;;;;;;;;10425556;27;20098;-62
2024/03/05 18:00:44;;;;;;;13.00;8.82;;;;;;;;;;10415922;27;20071;-62
2024/03/05 18:05:44;;;;;;;20.65;8.13;;;;;;;;;;10414525;27;20077;-60
2024/03/05 18:10:43;;;;;;;13.20;8.18;;;;;;;;;;10433722;27;20083;-61
2024/03/05 18:15:44;;;;;;;14.43;8.05;;;;;;;;;;10414891;27;20071;-61
2024/03/05 18:20:44;;;;;;;11.18;7.88;;;;;;;;;;10433912;27;20088;-62
2024/03/05 18:25:43;;;;;;;11.32;8.30;;;;;;;;;;10419952;27;20067;-61
2024/03/05 18:30:43;;;;;;;15.10;7.78;;;;;;;;;;10418429;27;20071;-61
2024/03/05 18:35:41;;;;;;;23.25;16.63;;;;;;;;;;10415845;27;20078;-61
2024/03/05 18:40:40;;;;;;;21.35;14.32;;;;;;;;;;10409605;27;20070;-62
2024/03/05 18:45:39;;;;;;;17.50;10.05;;;;;;;;;;10397429;27;20078;-61
2024/03/05 18:50:40;;;;;;;13.98;8.70;;;;;;;;;;10419738;27;20067;-61
2024/03/05 18:55:38;;;;;;;20.35;14.50;;;;;;;;;;10399756;27;20079;-61
2024/03/05 19:00:37;;;;;;;24.50;9.80;;;;;;;;;;10417427;27;20078;-61
2024/03/05 19:05:36;;;;;;;18.73;15.52;;;;;;;;;;10416045;27;20512;-62
2024/03/05 19:10:37;;;;;;;15.77;11.82;;;;;;;;;;10413133;27;20520;-62
2024/03/05 19:15:36;;;;;;;23.10;15.48;;;;;;;;;;10416515;27;20074;-61
2024/03/05 19:20:35;;;;;;;24.92;14.43;;;;;;;;;;10414829;27;20063;-62
2024/03/05 19:25:33;;;;;;;21.92;14.02;;;;;;;;;;10416458;27;20097;-61
2024/03/05 19:30:33;;;;;;;19.17;13.38;;;;;;;;;;10417949;27;20468;-61
2024/03/05 19:35:31;;;;;;;20.77;14.65;;;;;;;;;;10423042;27;20082;-62
2024/03/05 19:40:30;;;;;;;17.80;13.52;;;;;;;;;;10429733;27;20652;-60
2024/03/05 19:45:29;;;;;;;18.85;13.68;;;;;;;;;;10438558;27;20113;-61
2024/03/05 19:50:29;;;;;;;17.63;13.55;;;;;;;;;;10423572;27;20089;-61
2024/03/05 19:55:27;;;;;;;33.28;17.00;;;;;;;;;;10425262;27;20067;-61
2024/03/05 20:00:25;;;;;;;19.65;15.02;;;;;;;;;;10418723;27;20094;-62
2024/03/05 20:05:25;;;;;;;19.15;15.90;;;;;;;;;;10419306;27;20063;-61
2024/03/05 20:10:26;;;;;;;25.67;17.30;;;;;;;;;;10438816;27;20063;-61
2024/03/05 20:15:25;;;;;;;21.33;14.70;;;;;;;;;;10430367;27;20082;-61
2024/03/05 20:20:23;;;;;;;19.77;13.82;;;;;;;;;;10422158;27;20656;-61
2024/03/05 20:25:21;;;;;;;21.30;15.23;;;;;;;;;;10438185;27;20504;-61
2024/03/05 20:30:23;;;;;;;23.63;15.57;;;;;;;;;;10425168;27;20063;-62
2024/03/05 20:35:24;;;;;;;25.23;16.98;;;;;;;;;;10414994;27;20534;-60
2024/03/05 20:40:27;;;;;;;21.70;14.45;;;;;;;;;;10415674;27;20078;-62
2024/03/05 20:45:28;;;;;;;22.85;14.95;;;;;;;;;;10419315;27;20078;-61
2024/03/05 20:50:27;;;;;;;17.75;14.77;;;;;;;;;;10422472;27;20082;-62
2024/03/05 20:55:28;;;;;;;14.82;12.27;;;;;;;;;;10418964;27;20082;-60
2024/03/05 21:00:28;;;;;;;18.02;12.50;;;;;;;;;;10422171;27;20079;-60
2024/03/05 21:05:26;;;;;;;20.33;13.43;;;;;;;;;;10421887;27;20085;-61
2024/03/05 21:10:25;;;;;;;21.83;13.98;;;;;;;;;;10416472;27;20086;-60
2024/03/05 21:15:24;;;;;;;18.95;13.25;;;;;;;;;;10414340;27;20538;-60
2024/03/05 21:20:24;;;;;;;19.60;12.38;;;;;;;;;;10419650;27;20078;-60
2024/03/05 21:25:22;;;;;;;17.88;13.27;;;;;;;;;;10419124;27;20493;-60
2024/03/05 21:30:21;;;;;;;22.42;15.05;;;;;;;;;;10421307;27;20074;-61
2024/03/05 21:35:21;;;;;;;17.17;14.13;;;;;;;;;;10423577;27;20079;-60
2024/03/05 21:40:21;;;;;;;20.70;14.30;;;;;;;;;;10416150;27;20083;-62
2024/03/05 21:45:19;;;;;;;19.73;14.32;;;;;;;;;;10409616;27;20070;-61
2024/03/05 21:50:18;;;;;;;23.67;14.18;;;;;;;;;;10409607;27;20075;-62
2024/03/05 21:55:16;;;;;;;24.63;13.75;;;;;;;;;;10416223;27;20074;-62
2024/03/05 22:00:17;;;;;;;20.70;16.02;;;;;;;;;;10418491;27;20075;-62
2024/03/05 22:05:15;;;;;;;21.63;16.38;;;;;;;;;;10415971;27;20070;-62
2024/03/05 22:10:14;;;;;;;20.45;15.38;;;;;;;;;;10418840;27;20079;-62
2024/03/05 22:15:12;;;;;;;23.67;15.48;;;;;;;;;;10416095;27;20085;-61
2024/03/05 22:20:13;;;;;;;20.58;14.75;;;;;;;;;;10414547;27;20097;-62
2024/03/05 22:25:11;;;;;;;22.55;16.17;;;;;;;;;;10421228;27;20075;-61
2024/03/05 22:30:10;;;;;;;22.42;15.25;;;;;;;;;;10414888;27;20075;-62
2024/03/05 22:35:10;;;;;;;25.90;16.80;;;;;;;;;;10421413;27;20083;-60
2024/03/05 22:40:11;;;;;;;21.83;16.40;;;;;;;;;;10416331;27;20075;-62
2024/03/05 22:45:10;;;;;;;24.80;15.68;;;;;;;;;;10417644;27;20090;-61
2024/03/05 22:50:10;;;;;;;27.05;16.75;;;;;;;;;;10420032;27;20071;-62
2024/03/05 22:55:10;;;;;;;29.55;20.45;;;;;;;;;;10412551;27;20515;-61
2024/03/05 23:00:21;;;;;;;22.98;17.90;;;;;;;;;;10416327;27;20067;-61
2024/03/05 23:05:20;;;;;;;25.42;17.05;;;;;;;;;;10421806;27;20046;-61
2024/03/05 23:10:20;;;;;;;24.58;16.73;;;;;;;;;;10421408;27;21027;-60
2024/03/05 23:15:18;;;;;;;23.48;15.95;;;;;;;;;;10421722;27;20070;-62
2024/03/05 23:20:17;;;;;;;22.35;17.88;;;;;;;;;;10421842;27;20074;-62
2024/03/05 23:25:16;;;;;;;25.40;15.75;;;;;;;;;;10419798;27;20074;-63
2024/03/05 23:30:16;;;;;;;19.60;16.50;;;;;;;;;;10420557;27;20478;-62
2024/03/05 23:35:15;;;;;;;20.65;15.50;;;;;;;;;;10420322;27;20094;-62
2024/03/05 23:40:13;;;;;;;29.38;15.77;;;;;;;;;;10423183;27;20062;-61
2024/03/05 23:45:12;;;;;;;25.65;16.98;;;;;;;;;;10415441;27;20071;-62
2024/03/05 23:50:12;;;;;;;24.42;16.05;;;;;;;;;;10420930;27;20468;-62
2024/03/05 23:55:11;;;;;;;19.42;15.00;;;;;;;;;;10399510;27;20071;-61
